sensor_id;sensor_type;location;lat;lon;timestamp;temperature;humidity
25482;DHT22;13395;50.752;4.268;2023-06-14T00:01:01;20.30;75.10
25482;DHT22;13395;50.752;4.268;2023-06-14T00:03:28;20.30;75.70
25482;DHT22;13395;50.752;4.268;2023-06-14T00:05:54;20.20;75.90
25482;DHT22;13395;50.752;4.268;2023-06-14T00:08:19;20.20;76.80
25482;DHT22;13395;50.752;4.268;2023-06-14T00:10:46;20.20;76.70
25482;DHT22;13395;50.752;4.268;2023-06-14T00:13:12;20.10;76.70
25482;DHT22;13395;50.752;4.268;2023-06-14T00:15:37;20.10;77.70
25482;DHT22;13395;50.752;4.268;2023-06-14T00:18:03;20.10;79.10
25482;DHT22;13395;50.752;4.268;2023-06-14T00:20:30;20.00;81.30
25482;DHT22;13395;50.752;4.268;2023-06-14T00:23:01;19.90;82.10
25482;DHT22;13395;50.752;4.268;2023-06-14T00:25:27;19.80;82.90
25482;DHT22;13395;50.752;4.268;2023-06-14T00:27:54;19.60;84.20
25482;DHT22;13395;50.752;4.268;2023-06-14T00:30:19;19.50;84.40
25482;DHT22;13395;50.752;4.268;2023-06-14T00:32:47;19.40;85.70
25482;DHT22;13395;50.752;4.268;2023-06-14T00:35:13;19.40;87.00
25482;DHT22;13395;50.752;4.268;2023-06-14T00:37:38;19.40;86.70
25482;DHT22;13395;50.752;4.268;2023-06-14T00:40:05;19.40;87.20
25482;DHT22;13395;50.752;4.268;2023-06-14T00:42:31;19.40;88.60
25482;DHT22;13395;50.752;4.268;2023-06-14T00:44:56;19.30;88.60
25482;DHT22;13395;50.752;4.268;2023-06-14T00:47:22;19.30;89.40
25482;DHT22;13395;50.752;4.268;2023-06-14T00:49:48;19.30;88.80
25482;DHT22;13395;50.752;4.268;2023-06-14T00:52:14;19.30;89.30
25482;DHT22;13395;50.752;4.268;2023-06-14T00:54:40;19.30;90.40
25482;DHT22;13395;50.752;4.268;2023-06-14T00:57:07;19.30;90.70
25482;DHT22;13395;50.752;4.268;2023-06-14T00:59:33;19.20;90.80
25482;DHT22;13395;50.752;4.268;2023-06-14T01:01:58;19.20;90.50
25482;DHT22;13395;50.752;4.268;2023-06-14T01:04:24;19.20;90.70
25482;DHT22;13395;50.752;4.268;2023-06-14T01:06:56;19.20;89.10
25482;DHT22;13395;50.752;4.268;2023-06-14T01:12:04;19.20;90.50
25482;DHT22;13395;50.752;4.268;2023-06-14T01:14:32;19.20;90.80
25482;DHT22;13395;50.752;4.268;2023-06-14T01:16:59;19.10;91.30
25482;DHT22;13395;50.752;4.268;2023-06-14T01:19:25;19.00;91.80
25482;DHT22;13395;50.752;4.268;2023-06-14T01:21:54;19.00;92.00
25482;DHT22;13395;50.752;4.268;2023-06-14T01:24:20;18.90;92.30
25482;DHT22;13395;50.752;4.268;2023-06-14T01:26:52;18.90;92.70
25482;DHT22;13395;50.752;4.268;2023-06-14T01:29:21;18.80;92.90
25482;DHT22;13395;50.752;4.268;2023-06-14T01:31:47;18.80;93.20
25482;DHT22;13395;50.752;4.268;2023-06-14T01:34:14;18.70;93.50
25482;DHT22;13395;50.752;4.268;2023-06-14T01:36:40;18.60;94.00
25482;DHT22;13395;50.752;4.268;2023-06-14T01:39:06;18.50;94.80
25482;DHT22;13395;50.752;4.268;2023-06-14T01:41:32;18.40;95.00
25482;DHT22;13395;50.752;4.268;2023-06-14T01:43:59;18.40;95.20
25482;DHT22;13395;50.752;4.268;2023-06-14T01:46:25;18.50;94.70
25482;DHT22;13395;50.752;4.268;2023-06-14T01:48:50;18.40;95.50
25482;DHT22;13395;50.752;4.268;2023-06-14T01:51:16;18.30;95.80
25482;DHT22;13395;50.752;4.268;2023-06-14T01:53:42;18.30;96.50
25482;DHT22;13395;50.752;4.268;2023-06-14T01:56:07;18.20;96.60
25482;DHT22;13395;50.752;4.268;2023-06-14T01:58:33;18.20;95.70
25482;DHT22;13395;50.752;4.268;2023-06-14T02:00:58;18.20;95.80
25482;DHT22;13395;50.752;4.268;2023-06-14T02:03:25;18.20;96.30
25482;DHT22;13395;50.752;4.268;2023-06-14T02:05:51;18.20;96.50
25482;DHT22;13395;50.752;4.268;2023-06-14T02:08:17;18.00;97.90
25482;DHT22;13395;50.752;4.268;2023-06-14T02:10:43;17.90;98.30
25482;DHT22;13395;50.752;4.268;2023-06-14T02:13:08;17.80;98.50
25482;DHT22;13395;50.752;4.268;2023-06-14T02:15:34;17.80;98.90
25482;DHT22;13395;50.752;4.268;2023-06-14T02:18:01;17.80;99.00
25482;DHT22;13395;50.752;4.268;2023-06-14T02:20:27;17.80;99.60
25482;DHT22;13395;50.752;4.268;2023-06-14T02:22:53;17.80;99.90
25482;DHT22;13395;50.752;4.268;2023-06-14T02:25:19;17.70;99.90
25482;DHT22;13395;50.752;4.268;2023-06-14T02:27:44;17.70;99.90
25482;DHT22;13395;50.752;4.268;2023-06-14T02:30:10;17.70;99.90
25482;DHT22;13395;50.752;4.268;2023-06-14T02:32:36;17.70;99.90
25482;DHT22;13395;50.752;4.268;2023-06-14T02:35:02;17.70;99.90
25482;DHT22;13395;50.752;4.268;2023-06-14T02:37:27;17.60;99.90
25482;DHT22;13395;50.752;4.268;2023-06-14T02:39:53;17.40;99.90
25482;DHT22;13395;50.752;4.268;2023-06-14T02:42:18;17.40;99.90
25482;DHT22;13395;50.752;4.268;2023-06-14T02:44:44;17.30;99.90
25482;DHT22;13395;50.752;4.268;2023-06-14T02:47:11;17.00;99.90
25482;DHT22;13395;50.752;4.268;2023-06-14T02:49:37;16.90;99.90
25482;DHT22;13395;50.752;4.268;2023-06-14T02:52:02;16.80;99.90
25482;DHT22;13395;50.752;4.268;2023-06-14T02:54:28;16.90;99.90
25482;DHT22;13395;50.752;4.268;2023-06-14T02:56:54;16.90;99.90
25482;DHT22;13395;50.752;4.268;2023-06-14T02:59:19;16.90;99.90
25482;DHT22;13395;50.752;4.268;2023-06-14T03:01:46;16.70;99.90
25482;DHT22;13395;50.752;4.268;2023-06-14T03:04:12;16.60;99.90
25482;DHT22;13395;50.752;4.268;2023-06-14T03:06:37;16.60;99.90
25482;DHT22;13395;50.752;4.268;2023-06-14T03:09:04;16.50;99.90
25482;DHT22;13395;50.752;4.268;2023-06-14T03:11:30;16.40;99.90
25482;DHT22;13395;50.752;4.268;2023-06-14T03:13:56;16.50;99.90
25482;DHT22;13395;50.752;4.268;2023-06-14T03:16:22;16.40;99.90
25482;DHT22;13395;50.752;4.268;2023-06-14T03:18:52;16.30;99.90
25482;DHT22;13395;50.752;4.268;2023-06-14T03:21:18;16.40;99.90
25482;DHT22;13395;50.752;4.268;2023-06-14T03:23:44;16.40;99.90
25482;DHT22;13395;50.752;4.268;2023-06-14T03:26:10;16.50;99.90
25482;DHT22;13395;50.752;4.268;2023-06-14T03:28:39;16.60;99.90
25482;DHT22;13395;50.752;4.268;2023-06-14T03:31:05;16.60;99.90
25482;DHT22;13395;50.752;4.268;2023-06-14T03:33:30;16.60;99.90
25482;DHT22;13395;50.752;4.268;2023-06-14T03:35:56;16.60;99.90
25482;DHT22;13395;50.752;4.268;2023-06-14T03:38:21;16.70;99.90
25482;DHT22;13395;50.752;4.268;2023-06-14T03:40:47;16.70;99.90
25482;DHT22;13395;50.752;4.268;2023-06-14T03:43:13;16.80;99.90
25482;DHT22;13395;50.752;4.268;2023-06-14T03:45:38;16.80;99.90
25482;DHT22;13395;50.752;4.268;2023-06-14T03:48:04;16.80;99.90
25482;DHT22;13395;50.752;4.268;2023-06-14T03:50:32;16.80;99.90
25482;DHT22;13395;50.752;4.268;2023-06-14T03:52:57;16.80;99.90
25482;DHT22;13395;50.752;4.268;2023-06-14T03:55:23;16.90;99.90
25482;DHT22;13395;50.752;4.268;2023-06-14T03:57:51;16.90;99.90
25482;DHT22;13395;50.752;4.268;2023-06-14T04:00:16;16.90;99.90
25482;DHT22;13395;50.752;4.268;2023-06-14T04:02:43;16.90;99.90
25482;DHT22;13395;50.752;4.268;2023-06-14T04:05:09;17.00;99.90
25482;DHT22;13395;50.752;4.268;2023-06-14T04:07:35;17.10;99.90
25482;DHT22;13395;50.752;4.268;2023-06-14T04:10:10;17.20;99.90
25482;DHT22;13395;50.752;4.268;2023-06-14T04:12:36;17.30;99.90
25482;DHT22;13395;50.752;4.268;2023-06-14T04:15:02;17.50;99.90
25482;DHT22;13395;50.752;4.268;2023-06-14T04:17:28;17.60;99.90
25482;DHT22;13395;50.752;4.268;2023-06-14T04:19:54;17.80;99.90
25482;DHT22;13395;50.752;4.268;2023-06-14T04:22:19;17.90;99.90
25482;DHT22;13395;50.752;4.268;2023-06-14T04:24:45;18.20;99.90
25482;DHT22;13395;50.752;4.268;2023-06-14T04:27:11;18.40;99.90
25482;DHT22;13395;50.752;4.268;2023-06-14T04:29:37;18.50;99.90
25482;DHT22;13395;50.752;4.268;2023-06-14T04:32:02;18.60;99.90
25482;DHT22;13395;50.752;4.268;2023-06-14T04:34:28;18.80;99.90
25482;DHT22;13395;50.752;4.268;2023-06-14T04:36:59;19.00;99.90
25482;DHT22;13395;50.752;4.268;2023-06-14T04:39:26;19.10;99.90
25482;DHT22;13395;50.752;4.268;2023-06-14T04:41:52;19.10;99.90
25482;DHT22;13395;50.752;4.268;2023-06-14T04:44:23;19.10;99.90
25482;DHT22;13395;50.752;4.268;2023-06-14T04:46:49;19.00;99.90
25482;DHT22;13395;50.752;4.268;2023-06-14T04:49:15;18.80;99.90
25482;DHT22;13395;50.752;4.268;2023-06-14T04:51:41;18.60;99.90
25482;DHT22;13395;50.752;4.268;2023-06-14T04:54:08;18.40;99.90
25482;DHT22;13395;50.752;4.268;2023-06-14T04:56:35;18.50;99.90
25482;DHT22;13395;50.752;4.268;2023-06-14T04:59:02;18.40;99.90
25482;DHT22;13395;50.752;4.268;2023-06-14T05:01:30;18.40;99.90
25482;DHT22;13395;50.752;4.268;2023-06-14T05:03:57;18.40;99.90
25482;DHT22;13395;50.752;4.268;2023-06-14T05:06:22;18.40;99.90
25482;DHT22;13395;50.752;4.268;2023-06-14T05:08:48;18.50;99.90
25482;DHT22;13395;50.752;4.268;2023-06-14T05:11:13;18.60;99.90
25482;DHT22;13395;50.752;4.268;2023-06-14T05:13:39;18.80;99.90
25482;DHT22;13395;50.752;4.268;2023-06-14T05:16:06;19.10;99.90
25482;DHT22;13395;50.752;4.268;2023-06-14T05:18:32;20.00;99.90
25482;DHT22;13395;50.752;4.268;2023-06-14T05:20:59;20.90;99.70
25482;DHT22;13395;50.752;4.268;2023-06-14T05:23:25;22.00;97.50
25482;DHT22;13395;50.752;4.268;2023-06-14T05:25:50;22.90;94.80
25482;DHT22;13395;50.752;4.268;2023-06-14T05:28:16;23.50;89.70
25482;DHT22;13395;50.752;4.268;2023-06-14T05:30:41;24.50;88.30
25482;DHT22;13395;50.752;4.268;2023-06-14T05:33:07;25.20;82.80
25482;DHT22;13395;50.752;4.268;2023-06-14T05:35:32;25.50;76.60
25482;DHT22;13395;50.752;4.268;2023-06-14T05:37:58;26.40;74.60
25482;DHT22;13395;50.752;4.268;2023-06-14T05:40:23;27.10;71.30
25482;DHT22;13395;50.752;4.268;2023-06-14T05:42:49;27.70;69.80
25482;DHT22;13395;50.752;4.268;2023-06-14T05:45:15;28.30;67.90
25482;DHT22;13395;50.752;4.268;2023-06-14T05:47:41;28.50;64.70
25482;DHT22;13395;50.752;4.268;2023-06-14T05:50:07;28.50;61.70
25482;DHT22;13395;50.752;4.268;2023-06-14T05:52:33;29.00;62.40
25482;DHT22;13395;50.752;4.268;2023-06-14T05:54:59;29.40;62.00
25482;DHT22;13395;50.752;4.268;2023-06-14T05:57:25;29.40;59.50
25482;DHT22;13395;50.752;4.268;2023-06-14T05:59:50;29.60;57.90
25482;DHT22;13395;50.752;4.268;2023-06-14T06:02:16;30.10;58.00
25482;DHT22;13395;50.752;4.268;2023-06-14T06:04:42;29.90;57.20
25482;DHT22;13395;50.752;4.268;2023-06-14T06:07:07;30.50;57.20
25482;DHT22;13395;50.752;4.268;2023-06-14T06:09:33;30.60;55.60
25482;DHT22;13395;50.752;4.268;2023-06-14T06:11:58;30.80;55.20
25482;DHT22;13395;50.752;4.268;2023-06-14T06:14:24;31.10;55.20
25482;DHT22;13395;50.752;4.268;2023-06-14T06:16:50;31.30;56.10
25482;DHT22;13395;50.752;4.268;2023-06-14T06:19:15;31.40;55.70
25482;DHT22;13395;50.752;4.268;2023-06-14T06:21:41;31.80;55.40
25482;DHT22;13395;50.752;4.268;2023-06-14T06:24:06;32.10;53.30
25482;DHT22;13395;50.752;4.268;2023-06-14T06:26:32;32.60;53.30
25482;DHT22;13395;50.752;4.268;2023-06-14T06:28:58;33.20;53.20
25482;DHT22;13395;50.752;4.268;2023-06-14T06:31:23;33.50;51.00
25482;DHT22;13395;50.752;4.268;2023-06-14T06:33:49;33.60;51.50
25482;DHT22;13395;50.752;4.268;2023-06-14T06:36:15;34.10;50.20
25482;DHT22;13395;50.752;4.268;2023-06-14T06:38:40;34.10;50.00
25482;DHT22;13395;50.752;4.268;2023-06-14T06:41:06;34.40;48.60
25482;DHT22;13395;50.752;4.268;2023-06-14T06:43:31;34.50;48.90
25482;DHT22;13395;50.752;4.268;2023-06-14T06:45:57;34.40;48.70
25482;DHT22;13395;50.752;4.268;2023-06-14T06:48:22;34.30;48.40
25482;DHT22;13395;50.752;4.268;2023-06-14T06:50:48;34.80;49.30
25482;DHT22;13395;50.752;4.268;2023-06-14T06:53:13;34.90;47.70
25482;DHT22;13395;50.752;4.268;2023-06-14T06:55:39;34.90;46.40
25482;DHT22;13395;50.752;4.268;2023-06-14T06:58:04;34.20;47.00
25482;DHT22;13395;50.752;4.268;2023-06-14T07:00:30;34.00;46.70
25482;DHT22;13395;50.752;4.268;2023-06-14T07:02:56;33.90;46.70
25482;DHT22;13395;50.752;4.268;2023-06-14T07:05:22;33.70;46.50
25482;DHT22;13395;50.752;4.268;2023-06-14T07:07:48;33.20;47.60
25482;DHT22;13395;50.752;4.268;2023-06-14T07:10:13;33.50;48.90
25482;DHT22;13395;50.752;4.268;2023-06-14T07:12:39;34.40;48.20
25482;DHT22;13395;50.752;4.268;2023-06-14T07:15:08;35.30;47.30
25482;DHT22;13395;50.752;4.268;2023-06-14T07:17:34;35.70;44.60
25482;DHT22;13395;50.752;4.268;2023-06-14T07:20:00;35.60;46.80
25482;DHT22;13395;50.752;4.268;2023-06-14T07:22:26;35.70;46.50
25482;DHT22;13395;50.752;4.268;2023-06-14T07:24:51;36.70;45.30
25482;DHT22;13395;50.752;4.268;2023-06-14T07:27:17;37.10;44.40
25482;DHT22;13395;50.752;4.268;2023-06-14T07:29:42;37.70;42.10
25482;DHT22;13395;50.752;4.268;2023-06-14T07:32:08;37.80;43.20
25482;DHT22;13395;50.752;4.268;2023-06-14T07:34:33;38.20;42.30
25482;DHT22;13395;50.752;4.268;2023-06-14T07:36:59;39.00;43.90
25482;DHT22;13395;50.752;4.268;2023-06-14T07:39:24;39.70;42.40
25482;DHT22;13395;50.752;4.268;2023-06-14T07:41:50;39.60;41.90
25482;DHT22;13395;50.752;4.268;2023-06-14T07:44:16;39.90;41.40
25482;DHT22;13395;50.752;4.268;2023-06-14T07:46:41;39.30;41.70
25482;DHT22;13395;50.752;4.268;2023-06-14T07:49:07;39.20;41.30
25482;DHT22;13395;50.752;4.268;2023-06-14T07:51:32;39.10;39.70
25482;DHT22;13395;50.752;4.268;2023-06-14T07:53:59;38.50;40.00
25482;DHT22;13395;50.752;4.268;2023-06-14T07:56:26;38.30;41.40
25482;DHT22;13395;50.752;4.268;2023-06-14T07:58:51;38.80;41.10
25482;DHT22;13395;50.752;4.268;2023-06-14T08:01:17;38.70;39.50
25482;DHT22;13395;50.752;4.268;2023-06-14T08:03:43;38.60;39.30
25482;DHT22;13395;50.752;4.268;2023-06-14T08:06:08;39.20;40.00
25482;DHT22;13395;50.752;4.268;2023-06-14T08:08:34;39.90;40.20
25482;DHT22;13395;50.752;4.268;2023-06-14T08:10:59;40.30;38.60
25482;DHT22;13395;50.752;4.268;2023-06-14T08:13:25;40.30;38.70
25482;DHT22;13395;50.752;4.268;2023-06-14T08:15:50;41.00;38.40
25482;DHT22;13395;50.752;4.268;2023-06-14T08:18:16;41.90;38.00
25482;DHT22;13395;50.752;4.268;2023-06-14T08:20:41;41.10;37.80
25482;DHT22;13395;50.752;4.268;2023-06-14T08:23:07;41.20;37.30
25482;DHT22;13395;50.752;4.268;2023-06-14T08:25:34;41.90;38.30
25482;DHT22;13395;50.752;4.268;2023-06-14T08:28:00;42.70;36.60
25482;DHT22;13395;50.752;4.268;2023-06-14T08:30:26;43.10;35.50
25482;DHT22;13395;50.752;4.268;2023-06-14T08:32:51;42.80;34.80
25482;DHT22;13395;50.752;4.268;2023-06-14T08:35:17;42.90;35.50
25482;DHT22;13395;50.752;4.268;2023-06-14T08:37:43;42.70;35.90
25482;DHT22;13395;50.752;4.268;2023-06-14T08:40:16;42.90;35.10
25482;DHT22;13395;50.752;4.268;2023-06-14T08:42:42;43.30;34.70
25482;DHT22;13395;50.752;4.268;2023-06-14T08:45:08;43.50;35.30
25482;DHT22;13395;50.752;4.268;2023-06-14T08:47:34;43.10;34.00
25482;DHT22;13395;50.752;4.268;2023-06-14T08:50:02;42.30;33.20
25482;DHT22;13395;50.752;4.268;2023-06-14T08:52:29;42.00;33.60
25482;DHT22;13395;50.752;4.268;2023-06-14T08:54:59;41.20;33.50
25482;DHT22;13395;50.752;4.268;2023-06-14T08:57:26;40.70;34.50
25482;DHT22;13395;50.752;4.268;2023-06-14T08:59:55;41.40;34.40
25482;DHT22;13395;50.752;4.268;2023-06-14T09:02:22;42.30;33.70
25482;DHT22;13395;50.752;4.268;2023-06-14T09:04:47;42.10;33.40
25482;DHT22;13395;50.752;4.268;2023-06-14T09:07:15;42.00;35.20
25482;DHT22;13395;50.752;4.268;2023-06-14T09:09:40;41.70;33.80
25482;DHT22;13395;50.752;4.268;2023-06-14T09:12:10;41.60;33.80
25482;DHT22;13395;50.752;4.268;2023-06-14T09:14:36;41.80;33.70
25482;DHT22;13395;50.752;4.268;2023-06-14T09:17:05;42.60;33.60
25482;DHT22;13395;50.752;4.268;2023-06-14T09:19:30;42.50;33.40
25482;DHT22;13395;50.752;4.268;2023-06-14T09:21:56;41.90;32.60
25482;DHT22;13395;50.752;4.268;2023-06-14T09:24:23;41.30;33.90
25482;DHT22;13395;50.752;4.268;2023-06-14T09:26:50;40.80;33.90
25482;DHT22;13395;50.752;4.268;2023-06-14T09:29:16;39.90;35.10
25482;DHT22;13395;50.752;4.268;2023-06-14T09:31:42;40.10;35.50
25482;DHT22;13395;50.752;4.268;2023-06-14T09:34:07;41.00;35.50
25482;DHT22;13395;50.752;4.268;2023-06-14T09:36:34;41.20;35.20
25482;DHT22;13395;50.752;4.268;2023-06-14T09:39:03;41.50;34.20
25482;DHT22;13395;50.752;4.268;2023-06-14T09:44:01;40.90;34.80
25482;DHT22;13395;50.752;4.268;2023-06-14T09:46:28;40.70;35.30
25482;DHT22;13395;50.752;4.268;2023-06-14T09:48:55;40.90;35.70
25482;DHT22;13395;50.752;4.268;2023-06-14T09:51:21;40.70;35.90
25482;DHT22;13395;50.752;4.268;2023-06-14T09:53:48;41.00;35.30
25482;DHT22;13395;50.752;4.268;2023-06-14T09:56:15;40.90;35.70
25482;DHT22;13395;50.752;4.268;2023-06-14T09:58:43;40.10;35.50
25482;DHT22;13395;50.752;4.268;2023-06-14T10:01:09;40.80;34.20
25482;DHT22;13395;50.752;4.268;2023-06-14T10:03:35;41.20;34.60
25482;DHT22;13395;50.752;4.268;2023-06-14T10:06:02;40.80;34.90
25482;DHT22;13395;50.752;4.268;2023-06-14T10:08:29;40.60;33.50
25482;DHT22;13395;50.752;4.268;2023-06-14T10:10:56;40.10;34.60
25482;DHT22;13395;50.752;4.268;2023-06-14T10:13:22;40.30;34.60
25482;DHT22;13395;50.752;4.268;2023-06-14T10:18:22;40.80;35.50
25482;DHT22;13395;50.752;4.268;2023-06-14T10:20:53;41.60;34.20
25482;DHT22;13395;50.752;4.268;2023-06-14T10:23:21;41.90;34.20
25482;DHT22;13395;50.752;4.268;2023-06-14T10:25:54;41.50;34.40
25482;DHT22;13395;50.752;4.268;2023-06-14T10:28:21;41.20;34.80
25482;DHT22;13395;50.752;4.268;2023-06-14T10:31:03;41.20;34.40
25482;DHT22;13395;50.752;4.268;2023-06-14T10:33:32;41.10;34.90
25482;DHT22;13395;50.752;4.268;2023-06-14T10:38:33;41.20;36.10
25482;DHT22;13395;50.752;4.268;2023-06-14T10:41:00;41.80;33.50
25482;DHT22;13395;50.752;4.268;2023-06-14T10:43:26;41.30;34.60
25482;DHT22;13395;50.752;4.268;2023-06-14T10:46:11;41.30;33.70
25482;DHT22;13395;50.752;4.268;2023-06-14T10:48:40;42.10;33.50
25482;DHT22;13395;50.752;4.268;2023-06-14T10:51:05;43.50;33.20
25482;DHT22;13395;50.752;4.268;2023-06-14T10:53:40;44.20;32.60
25482;DHT22;13395;50.752;4.268;2023-06-14T10:56:08;42.90;31.80
25482;DHT22;13395;50.752;4.268;2023-06-14T10:58:34;42.60;32.30
25482;DHT22;13395;50.752;4.268;2023-06-14T11:00:59;43.30;32.40
25482;DHT22;13395;50.752;4.268;2023-06-14T11:06:12;44.00;31.20
25482;DHT22;13395;50.752;4.268;2023-06-14T11:11:09;44.50;30.20
25482;DHT22;13395;50.752;4.268;2023-06-14T11:13:39;44.30;31.40
25482;DHT22;13395;50.752;4.268;2023-06-14T11:16:12;43.40;30.80
25482;DHT22;13395;50.752;4.268;2023-06-14T11:18:37;42.30;32.50
25482;DHT22;13395;50.752;4.268;2023-06-14T11:21:03;42.20;31.50
25482;DHT22;13395;50.752;4.268;2023-06-14T11:23:28;40.70;32.40
25482;DHT22;13395;50.752;4.268;2023-06-14T11:25:54;40.00;33.00
25482;DHT22;13395;50.752;4.268;2023-06-14T11:28:20;40.40;33.00
25482;DHT22;13395;50.752;4.268;2023-06-14T11:30:47;40.80;31.70
25482;DHT22;13395;50.752;4.268;2023-06-14T11:33:19;40.90;31.80
25482;DHT22;13395;50.752;4.268;2023-06-14T11:35:44;41.50;33.60
25482;DHT22;13395;50.752;4.268;2023-06-14T11:38:11;42.40;31.90
25482;DHT22;13395;50.752;4.268;2023-06-14T11:40:37;42.60;31.60
25482;DHT22;13395;50.752;4.268;2023-06-14T11:43:03;43.30;31.40
25482;DHT22;13395;50.752;4.268;2023-06-14T11:45:30;42.80;30.20
25482;DHT22;13395;50.752;4.268;2023-06-14T11:47:56;42.50;31.00
25482;DHT22;13395;50.752;4.268;2023-06-14T11:50:21;42.50;31.10
25482;DHT22;13395;50.752;4.268;2023-06-14T11:52:54;42.10;30.90
25482;DHT22;13395;50.752;4.268;2023-06-14T11:55:20;42.40;31.10
25482;DHT22;13395;50.752;4.268;2023-06-14T11:57:46;42.60;30.90
25482;DHT22;13395;50.752;4.268;2023-06-14T12:00:12;42.60;30.00
25482;DHT22;13395;50.752;4.268;2023-06-14T12:02:38;42.50;30.30
25482;DHT22;13395;50.752;4.268;2023-06-14T12:05:04;42.00;30.50
25482;DHT22;13395;50.752;4.268;2023-06-14T12:07:32;40.90;31.80
25482;DHT22;13395;50.752;4.268;2023-06-14T12:12:23;40.60;32.80
25482;DHT22;13395;50.752;4.268;2023-06-14T12:14:51;40.80;31.20
25482;DHT22;13395;50.752;4.268;2023-06-14T12:17:17;41.40;32.10
25482;DHT22;13395;50.752;4.268;2023-06-14T12:19:43;42.00;31.60
25482;DHT22;13395;50.752;4.268;2023-06-14T12:22:09;42.30;32.70
25482;DHT22;13395;50.752;4.268;2023-06-14T12:24:35;41.90;30.10
25482;DHT22;13395;50.752;4.268;2023-06-14T12:27:01;41.60;31.40
25482;DHT22;13395;50.752;4.268;2023-06-14T12:29:28;41.50;32.40
25482;DHT22;13395;50.752;4.268;2023-06-14T12:31:54;41.30;32.90
25482;DHT22;13395;50.752;4.268;2023-06-14T12:34:21;41.00;32.70
25482;DHT22;13395;50.752;4.268;2023-06-14T12:36:47;40.80;32.60
25482;DHT22;13395;50.752;4.268;2023-06-14T12:39:12;39.70;32.40
25482;DHT22;13395;50.752;4.268;2023-06-14T12:41:38;39.80;33.60
25482;DHT22;13395;50.752;4.268;2023-06-14T12:44:06;40.00;33.00
25482;DHT22;13395;50.752;4.268;2023-06-14T12:46:31;39.40;33.70
25482;DHT22;13395;50.752;4.268;2023-06-14T12:48:57;38.90;34.10
25482;DHT22;13395;50.752;4.268;2023-06-14T12:51:23;38.60;34.50
25482;DHT22;13395;50.752;4.268;2023-06-14T12:53:50;38.20;35.60
25482;DHT22;13395;50.752;4.268;2023-06-14T12:56:15;37.40;36.50
25482;DHT22;13395;50.752;4.268;2023-06-14T12:58:41;36.50;34.90
25482;DHT22;13395;50.752;4.268;2023-06-14T13:01:07;35.90;35.60
25482;DHT22;13395;50.752;4.268;2023-06-14T13:03:32;35.30;37.00
25482;DHT22;13395;50.752;4.268;2023-06-14T13:05:59;35.10;38.50
25482;DHT22;13395;50.752;4.268;2023-06-14T13:08:25;34.50;38.30
25482;DHT22;13395;50.752;4.268;2023-06-14T13:10:51;34.40;39.30
25482;DHT22;13395;50.752;4.268;2023-06-14T13:13:17;34.80;39.80
25482;DHT22;13395;50.752;4.268;2023-06-14T13:15:42;34.90;38.20
25482;DHT22;13395;50.752;4.268;2023-06-14T13:18:09;34.60;37.80
25482;DHT22;13395;50.752;4.268;2023-06-14T13:20:34;34.20;38.60
25482;DHT22;13395;50.752;4.268;2023-06-14T13:23:00;34.00;38.80
25482;DHT22;13395;50.752;4.268;2023-06-14T13:25:25;34.00;39.50
25482;DHT22;13395;50.752;4.268;2023-06-14T13:27:51;33.60;38.00
25482;DHT22;13395;50.752;4.268;2023-06-14T13:30:16;33.40;38.40
25482;DHT22;13395;50.752;4.268;2023-06-14T13:32:42;33.40;38.70
25482;DHT22;13395;50.752;4.268;2023-06-14T13:35:07;33.40;38.60
25482;DHT22;13395;50.752;4.268;2023-06-14T13:37:33;33.20;39.00
25482;DHT22;13395;50.752;4.268;2023-06-14T13:39:59;33.00;39.70
25482;DHT22;13395;50.752;4.268;2023-06-14T13:42:24;33.00;40.10
25482;DHT22;13395;50.752;4.268;2023-06-14T13:44:50;33.10;38.80
25482;DHT22;13395;50.752;4.268;2023-06-14T13:47:17;32.80;39.00
25482;DHT22;13395;50.752;4.268;2023-06-14T13:49:42;32.70;40.00
25482;DHT22;13395;50.752;4.268;2023-06-14T13:52:07;32.40;40.30
25482;DHT22;13395;50.752;4.268;2023-06-14T13:54:33;32.20;40.90
25482;DHT22;13395;50.752;4.268;2023-06-14T13:56:58;32.10;40.30
25482;DHT22;13395;50.752;4.268;2023-06-14T13:59:24;32.10;42.10
25482;DHT22;13395;50.752;4.268;2023-06-14T14:01:50;32.10;41.00
25482;DHT22;13395;50.752;4.268;2023-06-14T14:04:15;32.20;41.20
25482;DHT22;13395;50.752;4.268;2023-06-14T14:06:41;32.30;40.90
25482;DHT22;13395;50.752;4.268;2023-06-14T14:09:07;32.10;40.80
25482;DHT22;13395;50.752;4.268;2023-06-14T14:11:33;32.00;42.90
25482;DHT22;13395;50.752;4.268;2023-06-14T14:13:59;31.90;42.00
25482;DHT22;13395;50.752;4.268;2023-06-14T14:16:24;31.60;41.60
25482;DHT22;13395;50.752;4.268;2023-06-14T14:18:50;31.20;40.30
25482;DHT22;13395;50.752;4.268;2023-06-14T14:21:15;31.00;40.80
25482;DHT22;13395;50.752;4.268;2023-06-14T14:23:41;31.20;41.90
25482;DHT22;13395;50.752;4.268;2023-06-14T14:26:06;31.30;41.20
25482;DHT22;13395;50.752;4.268;2023-06-14T14:28:32;31.40;40.00
25482;DHT22;13395;50.752;4.268;2023-06-14T14:30:58;31.00;40.20
25482;DHT22;13395;50.752;4.268;2023-06-14T14:33:24;31.00;39.70
25482;DHT22;13395;50.752;4.268;2023-06-14T14:35:50;30.90;40.10
25482;DHT22;13395;50.752;4.268;2023-06-14T14:38:15;30.90;40.50
25482;DHT22;13395;50.752;4.268;2023-06-14T14:40:41;30.90;41.10
25482;DHT22;13395;50.752;4.268;2023-06-14T14:43:07;30.80;39.60
25482;DHT22;13395;50.752;4.268;2023-06-14T14:45:32;30.70;39.40
25482;DHT22;13395;50.752;4.268;2023-06-14T14:47:58;30.70;40.80
25482;DHT22;13395;50.752;4.268;2023-06-14T14:50:25;30.60;40.30
25482;DHT22;13395;50.752;4.268;2023-06-14T14:52:50;30.70;40.80
25482;DHT22;13395;50.752;4.268;2023-06-14T14:55:16;30.60;40.90
25482;DHT22;13395;50.752;4.268;2023-06-14T14:57:41;30.60;40.20
25482;DHT22;13395;50.752;4.268;2023-06-14T15:00:08;30.50;41.90
25482;DHT22;13395;50.752;4.268;2023-06-14T15:02:34;30.40;40.90
25482;DHT22;13395;50.752;4.268;2023-06-14T15:04:59;30.20;39.50
25482;DHT22;13395;50.752;4.268;2023-06-14T15:07:32;29.90;40.70
25482;DHT22;13395;50.752;4.268;2023-06-14T15:09:59;30.00;40.50
25482;DHT22;13395;50.752;4.268;2023-06-14T15:12:25;30.00;40.20
25482;DHT22;13395;50.752;4.268;2023-06-14T15:14:50;30.00;41.50
25482;DHT22;13395;50.752;4.268;2023-06-14T15:17:17;30.10;40.50
25482;DHT22;13395;50.752;4.268;2023-06-14T15:19:43;30.10;40.80
25482;DHT22;13395;50.752;4.268;2023-06-14T15:22:09;30.10;40.90
25482;DHT22;13395;50.752;4.268;2023-06-14T15:24:34;30.00;40.40
25482;DHT22;13395;50.752;4.268;2023-06-14T15:27:00;29.80;41.20
25482;DHT22;13395;50.752;4.268;2023-06-14T15:29:25;29.80;40.40
25482;DHT22;13395;50.752;4.268;2023-06-14T15:31:51;29.70;41.00
25482;DHT22;13395;50.752;4.268;2023-06-14T15:34:16;29.80;41.30
25482;DHT22;13395;50.752;4.268;2023-06-14T15:36:42;29.80;40.50
25482;DHT22;13395;50.752;4.268;2023-06-14T15:39:07;29.80;41.50
25482;DHT22;13395;50.752;4.268;2023-06-14T15:41:33;29.60;40.40